createdAt,value
2023-01-25T00:01:06.846Z,61.80
2023-01-25T00:03:40.109Z,61.80
2023-01-25T00:06:14.076Z,61.80
2023-01-25T00:08:56.306Z,61.80
2023-01-25T00:11:24.596Z,61.80
2023-01-25T00:13:55.100Z,61.80
2023-01-25T00:16:25.346Z,61.90
2023-01-25T00:18:56.333Z,61.80
2023-01-25T00:21:26.229Z,61.90
2023-01-25T00:23:54.748Z,61.80
2023-01-25T00:26:27.351Z,61.90
2023-01-25T00:28:55.896Z,62.00
2023-01-25T00:32:14.545Z,61.80
2023-01-25T00:34:49.876Z,62.00
2023-01-25T00:37:52.522Z,62.00
2023-01-25T00:40:21.628Z,62.00
2023-01-25T00:45:37.216Z,62.00
2023-01-25T00:48:09.410Z,62.00
2023-01-25T00:50:39.721Z,62.00
2023-01-25T00:53:11.481Z,62.00
2023-01-25T00:55:42.474Z,62.00
2023-01-25T00:58:15.616Z,62.10
2023-01-25T01:00:45.993Z,62.00
2023-01-25T01:03:18.518Z,62.10
2023-01-25T01:05:47.627Z,62.10
2023-01-25T01:08:18.425Z,62.20
2023-01-25T01:10:50.978Z,62.20
2023-01-25T01:13:22.649Z,62.20
2023-01-25T01:15:54.224Z,62.10
2023-01-25T01:18:23.569Z,62.20
2023-01-25T01:20:58.345Z,62.10
2023-01-25T01:23:33.381Z,62.10
2023-01-25T01:26:13.807Z,62.20
2023-01-25T01:28:44.923Z,62.10
2023-01-25T01:31:15.649Z,62.10
2023-01-25T01:33:50.753Z,62.10
2023-01-25T01:36:21.452Z,62.10
2023-01-25T01:38:53.529Z,62.10
2023-01-25T01:41:29.440Z,62.10
2023-01-25T01:44:01.453Z,62.10
2023-01-25T01:46:42.504Z,62.10
2023-01-25T01:49:33.265Z,62.10
2023-01-25T01:52:15.975Z,62.10
2023-01-25T01:54:56.708Z,62.20
2023-01-25T01:57:40.620Z,62.10
2023-01-25T02:00:26.735Z,62.20
2023-01-25T02:02:58.325Z,62.30
2023-01-25T02:05:52.750Z,62.40
2023-01-25T02:08:21.131Z,62.30
2023-01-25T02:10:51.090Z,62.20
2023-01-25T02:13:23.539Z,62.30
2023-01-25T02:15:53.597Z,62.10
2023-01-25T02:18:21.078Z,62.20
2023-01-25T02:20:57.949Z,62.20
2023-01-25T02:24:01.636Z,62.30
2023-01-25T02:26:31.390Z,62.20
2023-01-25T02:29:18.040Z,62.40
2023-01-25T02:31:49.678Z,62.40
2023-01-25T02:34:21.225Z,62.40
2023-01-25T02:36:53.545Z,62.40
2023-01-25T02:39:46.154Z,62.30
2023-01-25T02:42:15.535Z,62.30
2023-01-25T02:44:44.115Z,62.40
2023-01-25T02:47:13.682Z,63.00
2023-01-25T02:49:45.182Z,62.50
2023-01-25T02:52:16.652Z,62.40
2023-01-25T02:54:48.596Z,62.40
2023-01-25T02:57:22.379Z,62.40
2023-01-25T02:59:55.396Z,62.40
2023-01-25T03:02:26.093Z,62.40
2023-01-25T03:04:57.451Z,62.40
2023-01-25T03:07:29.219Z,62.50
2023-01-25T03:10:01.403Z,62.50
2023-01-25T03:12:32.590Z,62.50
2023-01-25T03:15:02.569Z,62.40
2023-01-25T03:17:34.867Z,62.50
2023-01-25T03:20:09.068Z,62.50
2023-01-25T03:22:40.688Z,62.40
2023-01-25T03:25:12.228Z,62.50
2023-01-25T03:30:22.462Z,62.50
2023-01-25T03:32:55.868Z,62.50
2023-01-25T03:35:27.403Z,62.50
2023-01-25T03:37:55.700Z,62.40
2023-01-25T03:40:25.606Z,62.50
2023-01-25T03:42:56.081Z,62.50
2023-01-25T03:45:25.634Z,62.50
2023-01-25T03:47:59.281Z,62.50
2023-01-25T03:50:27.295Z,62.50
2023-01-25T03:53:04.283Z,62.50
2023-01-25T03:55:34.687Z,62.40
2023-01-25T03:58:06.956Z,62.40
2023-01-25T04:00:51.228Z,62.50
2023-01-25T04:03:23.882Z,62.50
2023-01-25T04:05:55.992Z,62.50
2023-01-25T04:08:26.793Z,62.50
2023-01-25T04:11:05.285Z,62.50
2023-01-25T04:13:40.768Z,62.30
2023-01-25T04:16:14.902Z,63.10
2023-01-25T04:18:46.434Z,62.50
2023-01-25T04:21:16.254Z,62.30
2023-01-25T04:23:48.421Z,62.30
2023-01-25T04:26:19.567Z,62.30
2023-01-25T04:28:48.902Z,62.40
2023-01-25T04:31:17.179Z,62.40
2023-01-25T04:33:50.597Z,62.40
2023-01-25T04:36:21.499Z,62.30
2023-01-25T04:38:49.550Z,62.40
2023-01-25T04:41:20.128Z,62.30
2023-01-25T04:43:50.358Z,62.50
2023-01-25T04:46:20.820Z,62.50
2023-01-25T04:48:52.256Z,62.30
2023-01-25T04:51:21.291Z,62.30
2023-01-25T04:53:52.996Z,62.30
2023-01-25T04:56:22.529Z,62.30
2023-01-25T04:58:52.869Z,62.30
2023-01-25T05:01:24.313Z,62.30
2023-01-25T05:03:52.281Z,62.30
2023-01-25T05:06:22.933Z,62.30
2023-01-25T05:08:53.612Z,62.20
2023-01-25T05:11:23.462Z,62.20
2023-01-25T05:13:57.645Z,62.20
2023-01-25T05:16:29.196Z,62.20
2023-01-25T05:19:00.929Z,62.10
2023-01-25T05:21:48.622Z,62.00
2023-01-25T05:24:17.713Z,62.00
2023-01-25T05:27:06.215Z,62.00
2023-01-25T05:29:42.231Z,62.00
2023-01-25T05:35:03.177Z,62.00
2023-01-25T05:37:33.673Z,62.10
2023-01-25T05:40:04.176Z,62.20
2023-01-25T05:42:34.723Z,62.10
2023-01-25T05:45:10.290Z,62.20
2023-01-25T05:47:41.932Z,62.10
2023-01-25T05:50:20.428Z,62.10
2023-01-25T05:52:48.726Z,62.10
2023-01-25T05:55:22.305Z,62.10
2023-01-25T05:57:54.011Z,62.00
2023-01-25T06:00:23.455Z,62.10
2023-01-25T06:02:55.662Z,62.00
2023-01-25T06:05:25.705Z,61.90
2023-01-25T06:07:57.397Z,61.90
2023-01-25T06:10:30.523Z,61.80
2023-01-25T06:13:02.603Z,61.80
2023-01-25T06:15:35.057Z,61.80
2023-01-25T06:18:10.111Z,61.80
2023-01-25T06:20:46.659Z,61.80
2023-01-25T06:23:18.704Z,61.70
2023-01-25T06:25:55.200Z,61.80
2023-01-25T06:28:26.737Z,61.80
2023-01-25T06:30:58.407Z,61.70
2023-01-25T06:33:30.269Z,61.70
2023-01-25T06:36:09.059Z,61.70
2023-01-25T06:38:36.973Z,61.80
2023-01-25T06:41:18.711Z,61.70
2023-01-25T06:43:52.638Z,61.70
2023-01-25T06:46:24.667Z,61.60
2023-01-25T06:48:55.020Z,61.80
2023-01-25T06:51:23.863Z,61.80
2023-01-25T06:53:54.980Z,61.60
2023-01-25T06:56:27.526Z,61.60
2023-01-25T06:58:55.258Z,61.70
2023-01-25T07:01:27.651Z,61.80
2023-01-25T07:03:58.767Z,61.80
2023-01-25T07:06:40.157Z,61.70
2023-01-25T07:09:18.920Z,61.60
2023-01-25T07:11:47.779Z,62.20
2023-01-25T07:14:23.075Z,61.40
2023-01-25T07:16:56.869Z,61.40
2023-01-25T07:19:27.211Z,61.40
2023-01-25T07:21:55.681Z,61.40
2023-01-25T07:27:14.227Z,61.30
2023-01-25T07:29:44.296Z,61.20
2023-01-25T07:32:19.848Z,61.10
2023-01-25T07:34:55.221Z,61.00
2023-01-25T07:37:29.994Z,60.90
2023-01-25T07:40:06.027Z,60.80
2023-01-25T07:42:36.412Z,60.80
2023-01-25T07:45:08.046Z,60.70
2023-01-25T07:47:40.285Z,60.60
2023-01-25T07:50:09.609Z,60.60
2023-01-25T07:52:41.394Z,61.20
2023-01-25T07:55:13.745Z,60.40
2023-01-25T07:57:48.083Z,60.50
2023-01-25T08:00:18.026Z,61.10
2023-01-25T08:03:00.064Z,61.80
2023-01-25T08:05:31.816Z,62.90
2023-01-25T08:08:00.098Z,62.40
2023-01-25T08:10:32.603Z,61.90
2023-01-25T08:13:01.416Z,61.50
2023-01-25T08:15:31.639Z,60.70
2023-01-25T08:18:03.767Z,60.20
2023-01-25T08:20:31.434Z,59.80
2023-01-25T08:23:03.618Z,59.40
2023-01-25T08:25:32.108Z,58.70
2023-01-25T08:28:03.570Z,58.10
2023-01-25T08:30:33.541Z,57.80
2023-01-25T08:33:03.057Z,57.40
2023-01-25T08:35:34.067Z,57.30
2023-01-25T08:38:02.336Z,56.90
2023-01-25T08:40:35.871Z,56.60
2023-01-25T08:43:09.971Z,55.90
2023-01-25T08:45:39.608Z,55.40
2023-01-25T08:48:09.687Z,55.30
2023-01-25T08:50:40.114Z,55.30
2023-01-25T08:53:08.146Z,54.90
2023-01-25T08:55:36.632Z,54.60
2023-01-25T08:58:04.392Z,54.50
2023-01-25T09:00:36.796Z,54.20
2023-01-25T09:03:06.897Z,53.60
2023-01-25T09:05:39.217Z,53.60
2023-01-25T09:08:11.673Z,53.50
2023-01-25T09:10:49.033Z,53.50
2023-01-25T09:13:16.947Z,53.50
2023-01-25T09:15:45.654Z,52.90
2023-01-25T09:18:14.628Z,52.20
2023-01-25T09:20:42.637Z,52.30
2023-01-25T09:23:12.774Z,52.10
2023-01-25T09:25:42.324Z,52.00
2023-01-25T09:28:11.648Z,51.60
2023-01-25T09:30:48.826Z,51.50
2023-01-25T09:33:22.101Z,51.20
2023-01-25T09:35:59.273Z,50.90
2023-01-25T09:38:28.770Z,50.90
2023-01-25T09:41:08.603Z,50.60
2023-01-25T09:44:14.548Z,50.60
2023-01-25T09:50:10.783Z,50.20
2023-01-25T09:53:07.338Z,50.20
2023-01-25T09:55:38.881Z,49.70
2023-01-25T09:58:18.894Z,49.60
2023-01-25T10:00:50.715Z,49.50
2023-01-25T10:03:32.508Z,49.30
2023-01-25T10:06:01.982Z,49.20
2023-01-25T10:09:02.001Z,49.20
2023-01-25T10:11:34.015Z,49.00
2023-01-25T10:14:04.104Z,48.90
2023-01-25T10:17:03.393Z,49.10
2023-01-25T10:20:00.702Z,48.80
2023-01-25T10:22:48.318Z,48.50
2023-01-25T10:26:07.622Z,48.40
2023-01-25T10:29:12.518Z,48.20
2023-01-25T10:32:05.245Z,48.00
2023-01-25T10:34:55.330Z,47.80
2023-01-25T10:37:36.103Z,48.30
2023-01-25T10:40:25.347Z,48.00
2023-01-25T10:43:24.590Z,47.80
2023-01-25T10:45:55.133Z,47.50
2023-01-25T10:48:35.754Z,47.40
2023-01-25T10:51:04.774Z,47.20
2023-01-25T10:53:47.467Z,46.90
2023-01-25T10:56:26.109Z,46.90
2023-01-25T10:59:05.638Z,47.10
2023-01-25T11:01:36.428Z,46.70
2023-01-25T11:04:27.588Z,46.70
2023-01-25T11:06:59.178Z,46.30
2023-01-25T11:12:22.201Z,46.50
2023-01-25T11:14:58.012Z,46.70
2023-01-25T11:17:32.121Z,46.30
2023-01-25T11:20:21.184Z,46.20
2023-01-25T11:22:57.708Z,46.30
2023-01-25T11:25:36.303Z,45.70
2023-01-25T11:28:20.269Z,45.50
2023-01-25T11:30:54.028Z,45.50
2023-01-25T11:33:31.050Z,45.90
2023-01-25T11:36:33.366Z,45.80
2023-01-25T11:39:39.760Z,46.60
2023-01-25T11:42:46.842Z,47.00
2023-01-25T11:45:36.125Z,46.80
2023-01-25T11:48:17.834Z,46.10
2023-01-25T11:51:10.914Z,46.00
2023-01-25T11:54:26.104Z,45.90
2023-01-25T11:57:36.506Z,45.70
2023-01-25T12:00:40.913Z,45.50
2023-01-25T12:03:33.367Z,45.90
2023-01-25T12:06:41.747Z,46.00
2023-01-25T12:09:40.189Z,46.50
2023-01-25T12:12:33.774Z,46.40
2023-01-25T12:15:42.164Z,46.90
2023-01-25T12:18:44.951Z,47.20
2023-01-25T12:21:31.481Z,47.50
2023-01-25T12:24:37.690Z,46.70
2023-01-25T12:27:24.537Z,47.00
2023-01-25T12:30:45.894Z,46.80
2023-01-25T12:33:28.699Z,47.10
2023-01-25T12:36:38.104Z,47.40
2023-01-25T12:39:30.579Z,47.30
2023-01-25T12:42:12.946Z,48.00
2023-01-25T12:44:52.773Z,47.50
2023-01-25T12:48:18.012Z,47.80
2023-01-25T12:51:00.447Z,47.80
2023-01-25T12:53:44.586Z,47.90
2023-01-25T12:56:56.309Z,48.20
2023-01-25T12:59:50.665Z,48.20
2023-01-25T13:02:39.590Z,48.80
2023-01-25T13:05:42.668Z,48.10
2023-01-25T13:08:34.450Z,48.90
2023-01-25T13:11:39.879Z,49.70
2023-01-25T13:14:26.871Z,49.60
2023-01-25T13:17:43.187Z,49.50
2023-01-25T13:20:57.410Z,50.00
2023-01-25T13:26:47.358Z,50.10
2023-01-25T13:29:54.562Z,50.30
2023-01-25T13:32:39.483Z,50.40
2023-01-25T13:35:41.430Z,50.70
2023-01-25T13:38:35.568Z,50.80
2023-01-25T13:41:19.502Z,50.90
2023-01-25T13:43:49.605Z,50.90
2023-01-25T13:46:24.624Z,50.90
2023-01-25T13:49:11.035Z,51.00
2023-01-25T13:51:52.101Z,50.90
2023-01-25T13:54:20.069Z,51.10
2023-01-25T13:56:50.071Z,50.50
2023-01-25T13:59:27.400Z,50.70
2023-01-25T14:01:57.139Z,50.70
2023-01-25T14:04:27.782Z,50.60
2023-01-25T14:07:00.540Z,51.10
2023-01-25T14:09:35.445Z,51.30
2023-01-25T14:12:08.448Z,51.40
2023-01-25T14:14:40.504Z,51.00
2023-01-25T14:17:22.341Z,50.90
2023-01-25T14:19:58.535Z,51.00
2023-01-25T14:22:32.038Z,50.90
2023-01-25T14:25:20.660Z,51.40
2023-01-25T14:27:54.127Z,51.50
2023-01-25T14:30:30.724Z,51.30
2023-01-25T14:33:06.722Z,50.30
2023-01-25T14:38:38.947Z,51.50
2023-01-25T14:41:27.711Z,51.50
2023-01-25T14:44:00.138Z,51.40
2023-01-25T14:46:34.788Z,51.60
2023-01-25T14:49:29.781Z,50.70
2023-01-25T14:52:20.180Z,50.50
2023-01-25T14:55:00.215Z,49.90
2023-01-25T14:57:45.836Z,50.20
2023-01-25T15:00:31.636Z,49.30
2023-01-25T15:03:14.134Z,48.80
2023-01-25T15:05:46.430Z,48.60
2023-01-25T15:08:31.294Z,48.80
2023-01-25T15:11:20.254Z,48.60
2023-01-25T15:14:02.668Z,48.10
2023-01-25T15:16:36.214Z,47.60
2023-01-25T15:19:06.505Z,47.30
2023-01-25T15:21:35.991Z,47.30
2023-01-25T15:24:12.720Z,47.00
2023-01-25T15:26:39.709Z,46.80
2023-01-25T15:29:31.214Z,46.60
2023-01-25T15:32:03.851Z,46.30
2023-01-25T15:34:36.934Z,46.70
2023-01-25T15:37:04.750Z,46.00
2023-01-25T15:39:35.080Z,45.70
2023-01-25T15:42:05.426Z,45.50
2023-01-25T15:44:33.486Z,45.40
2023-01-25T15:47:03.587Z,45.20
2023-01-25T15:49:37.099Z,45.10
2023-01-25T15:52:06.095Z,44.50
2023-01-25T15:54:34.111Z,42.80
2023-01-25T15:57:04.848Z,42.90
2023-01-25T15:59:35.968Z,43.80
2023-01-25T16:02:04.079Z,44.10
2023-01-25T16:04:34.303Z,44.40
2023-01-25T16:07:03.054Z,44.60
2023-01-25T16:09:33.133Z,44.80
2023-01-25T16:12:06.201Z,45.60
2023-01-25T16:14:37.953Z,45.40
2023-01-25T16:17:08.204Z,45.40
2023-01-25T16:19:42.784Z,45.80
2023-01-25T16:25:04.376Z,46.30
2023-01-25T16:27:39.045Z,46.00
2023-01-25T16:30:12.913Z,46.70
2023-01-25T16:32:44.215Z,46.90
2023-01-25T16:35:14.435Z,47.20
2023-01-25T16:37:44.797Z,47.30
2023-01-25T16:40:27.041Z,47.50
2023-01-25T16:43:00.064Z,47.80
2023-01-25T16:45:29.084Z,47.70
2023-01-25T16:47:58.248Z,48.00
2023-01-25T16:50:29.623Z,48.20
2023-01-25T16:53:02.927Z,48.40
2023-01-25T16:55:35.082Z,48.50
2023-01-25T16:58:06.701Z,48.60
2023-01-25T17:00:34.973Z,48.90
2023-01-25T17:03:09.042Z,49.10
2023-01-25T17:05:42.158Z,49.20
2023-01-25T17:08:09.957Z,49.40
2023-01-25T17:10:41.745Z,50.00
2023-01-25T17:13:14.025Z,49.50
2023-01-25T17:15:44.991Z,49.90
2023-01-25T17:18:11.949Z,49.90
2023-01-25T17:20:43.937Z,49.90
2023-01-25T17:23:15.080Z,50.10
2023-01-25T17:28:29.543Z,50.30
2023-01-25T17:31:00.168Z,50.40
2023-01-25T17:33:31.768Z,50.50
2023-01-25T17:36:04.996Z,50.50
2023-01-25T17:38:35.765Z,50.80
2023-01-25T17:41:12.050Z,50.90
2023-01-25T17:43:40.837Z,51.00
2023-01-25T17:46:37.601Z,51.20
2023-01-25T17:49:15.913Z,51.20
2023-01-25T17:51:47.896Z,51.30
2023-01-25T17:54:17.277Z,51.40
2023-01-25T17:56:48.270Z,51.40
2023-01-25T17:59:18.780Z,51.50
2023-01-25T18:01:54.093Z,51.50
2023-01-25T18:04:23.521Z,51.50
2023-01-25T18:06:54.239Z,51.70
2023-01-25T18:09:29.261Z,51.70
2023-01-25T18:11:59.530Z,51.90
2023-01-25T18:14:31.460Z,52.00
2023-01-25T18:17:02.711Z,52.00
2023-01-25T18:19:34.757Z,52.00
2023-01-25T18:22:05.643Z,51.90
2023-01-25T18:24:44.144Z,52.10
2023-01-25T18:27:24.092Z,52.20
2023-01-25T18:30:34.327Z,52.20
2023-01-25T18:33:05.663Z,52.30
2023-01-25T18:35:36.647Z,52.50
2023-01-25T18:38:07.754Z,52.50
2023-01-25T18:40:40.962Z,52.50
2023-01-25T18:43:17.082Z,52.50
2023-01-25T18:45:49.875Z,52.60
2023-01-25T18:48:21.183Z,52.80
2023-01-25T18:50:52.405Z,52.80
2023-01-25T18:53:21.805Z,52.80
2023-01-25T18:56:23.122Z,52.80
2023-01-25T18:58:59.922Z,52.80
2023-01-25T19:01:30.697Z,53.00
2023-01-25T19:04:00.504Z,53.10
2023-01-25T19:06:31.593Z,53.20
2023-01-25T19:09:04.055Z,53.10
2023-01-25T19:11:34.544Z,53.10
2023-01-25T19:14:02.874Z,53.10
2023-01-25T19:16:33.569Z,53.20
2023-01-25T19:19:04.072Z,53.20
2023-01-25T19:21:33.280Z,53.30
2023-01-25T19:24:04.883Z,53.40
2023-01-25T19:26:36.869Z,53.40
2023-01-25T19:29:05.606Z,53.60
2023-01-25T19:31:37.025Z,54.40
2023-01-25T19:34:07.961Z,55.50
2023-01-25T19:36:40.601Z,56.70
2023-01-25T19:39:12.182Z,58.20
2023-01-25T19:41:40.169Z,59.40
2023-01-25T19:44:13.165Z,59.40
2023-01-25T19:49:26.032Z,59.70
2023-01-25T19:52:00.178Z,60.00
2023-01-25T19:54:32.217Z,60.30
2023-01-25T19:57:02.193Z,60.30
2023-01-25T19:59:32.818Z,60.30
2023-01-25T20:02:04.291Z,60.10
2023-01-25T20:04:32.310Z,60.10
2023-01-25T20:07:05.628Z,59.80
2023-01-25T20:09:37.058Z,59.40
2023-01-25T20:12:15.211Z,59.40
2023-01-25T20:14:47.020Z,58.70
2023-01-25T20:17:19.073Z,59.10
2023-01-25T20:19:47.912Z,58.20
2023-01-25T20:22:18.583Z,58.40
2023-01-25T20:24:48.644Z,58.90
2023-01-25T20:27:19.280Z,58.70
2023-01-25T20:29:53.198Z,58.80
2023-01-25T20:32:32.285Z,58.70
2023-01-25T20:35:06.076Z,58.80
2023-01-25T20:37:37.659Z,58.80
2023-01-25T20:40:07.466Z,58.30
2023-01-25T20:42:37.820Z,59.30
2023-01-25T20:45:08.996Z,58.20
2023-01-25T20:47:41.625Z,57.90
2023-01-25T20:50:12.569Z,58.20
2023-01-25T20:52:40.847Z,58.20
2023-01-25T20:55:11.234Z,58.50
2023-01-25T20:57:42.397Z,58.50
2023-01-25T21:00:10.216Z,58.40
2023-01-25T21:02:44.626Z,58.40
2023-01-25T21:05:15.778Z,58.10
2023-01-25T21:10:33.035Z,58.30
2023-01-25T21:13:01.199Z,58.30
2023-01-25T21:15:30.427Z,58.40
2023-01-25T21:20:42.778Z,58.30
2023-01-25T21:23:13.180Z,58.30
2023-01-25T21:25:41.107Z,58.30
2023-01-25T21:30:55.193Z,58.30
2023-01-25T21:33:24.029Z,58.50
2023-01-25T21:35:58.279Z,58.60
2023-01-25T21:38:28.570Z,58.60
2023-01-25T21:41:10.652Z,58.60
2023-01-25T21:43:59.753Z,58.50
2023-01-25T21:46:30.332Z,58.40
2023-01-25T21:49:27.138Z,58.50
2023-01-25T21:52:03.379Z,58.80
2023-01-25T21:54:37.697Z,59.10
2023-01-25T21:57:11.779Z,58.80
2023-01-25T21:59:43.278Z,58.70
2023-01-25T22:02:16.701Z,59.20
2023-01-25T22:04:47.209Z,59.30
2023-01-25T22:07:18.684Z,59.20
2023-01-25T22:09:49.668Z,59.20
2023-01-25T22:12:19.577Z,58.90
2023-01-25T22:14:49.508Z,59.30
2023-01-25T22:17:22.264Z,59.00
2023-01-25T22:19:54.032Z,58.90
2023-01-25T22:22:23.437Z,58.80
2023-01-25T22:24:50.443Z,58.70
2023-01-25T22:27:28.748Z,58.80
2023-01-25T22:29:56.820Z,59.10
2023-01-25T22:32:28.046Z,59.00
2023-01-25T22:34:59.534Z,59.20
2023-01-25T22:37:31.822Z,59.00
2023-01-25T22:40:03.230Z,59.00
2023-01-25T22:42:34.456Z,58.80
2023-01-25T22:47:49.328Z,59.50
2023-01-25T22:50:20.989Z,58.80
2023-01-25T22:52:51.595Z,58.80
2023-01-25T22:55:21.813Z,58.80
2023-01-25T22:57:52.448Z,58.70
2023-01-25T23:00:22.831Z,58.80
2023-01-25T23:02:54.217Z,58.90
2023-01-25T23:05:23.249Z,58.90
2023-01-25T23:07:52.984Z,58.90
2023-01-25T23:10:28.030Z,58.90
2023-01-25T23:12:58.365Z,58.90
2023-01-25T23:15:30.714Z,59.00
2023-01-25T23:18:21.190Z,58.90
2023-01-25T23:20:54.716Z,59.10
2023-01-25T23:23:25.747Z,59.20
2023-01-25T23:25:54.616Z,59.10
2023-01-25T23:28:23.087Z,59.00
2023-01-25T23:30:52.666Z,58.90
2023-01-25T23:33:20.559Z,59.00
2023-01-25T23:35:49.081Z,58.90
2023-01-25T23:38:20.727Z,58.90
2023-01-25T23:40:51.900Z,58.90
2023-01-25T23:43:22.395Z,58.90
2023-01-25T23:45:54.987Z,59.00
2023-01-25T23:48:26.330Z,59.00
2023-01-25T23:51:03.119Z,59.00
2023-01-25T23:53:38.366Z,59.10
2023-01-25T23:56:19.540Z,59.00
2023-01-25T23:58:52.293Z,59.20
